createdAt,value
2019-01-21T00:00:11.219Z,44.23
2019-01-21T00:02:37.785Z,43.42
2019-01-21T00:05:06.779Z,46.20
2019-01-21T00:07:33.078Z,50.03
2019-01-21T00:09:59.333Z,41.77
2019-01-21T00:12:25.701Z,45.52
2019-01-21T00:14:52.112Z,41.15
2019-01-21T00:17:22.267Z,42.90
2019-01-21T00:19:46.597Z,52.93
2019-01-21T00:22:12.959Z,49.60
2019-01-21T00:24:39.240Z,47.98
2019-01-21T00:27:05.667Z,51.48
2019-01-21T00:29:32.050Z,49.85
2019-01-21T00:31:58.405Z,49.05
2019-01-21T00:34:24.844Z,47.75
2019-01-21T00:36:51.114Z,46.25
2019-01-21T00:39:17.427Z,47.08
2019-01-21T00:41:43.680Z,44.13
2019-01-21T00:44:09.959Z,43.35
2019-01-21T00:46:36.425Z,43.05
2019-01-21T00:49:02.942Z,45.48
2019-01-21T00:51:29.213Z,42.98
2019-01-21T00:53:55.595Z,49.58
2019-01-21T00:56:21.989Z,48.52
2019-01-21T00:58:48.251Z,48.83
2019-01-21T01:01:14.718Z,49.67
2019-01-21T01:03:41.108Z,43.80
2019-01-21T01:06:07.517Z,46.28
2019-01-21T01:08:33.899Z,48.55
2019-01-21T01:11:00.184Z,49.10
2019-01-21T01:13:26.472Z,48.73
2019-01-21T01:15:52.973Z,42.78
2019-01-21T01:18:19.463Z,45.38
2019-01-21T01:20:45.888Z,50.00
2019-01-21T01:23:12.357Z,78.07
2019-01-21T01:25:38.630Z,72.27
2019-01-21T01:28:04.998Z,48.38
2019-01-21T01:30:31.363Z,48.00
2019-01-21T01:32:57.667Z,47.33
2019-01-21T01:35:24.065Z,43.40
2019-01-21T01:37:50.431Z,38.60
2019-01-21T01:40:17.127Z,46.15
2019-01-21T01:42:43.609Z,39.83
2019-01-21T01:45:13.696Z,40.45
2019-01-21T01:47:44.728Z,42.17
2019-01-21T01:50:08.562Z,47.75
2019-01-21T01:52:34.940Z,41.53
2019-01-21T01:55:04.454Z,42.85
2019-01-21T01:57:30.838Z,45.78
2019-01-21T01:59:57.336Z,41.18
2019-01-21T02:02:23.700Z,53.13
2019-01-21T02:04:50.279Z,38.70
2019-01-21T02:07:16.871Z,42.40
2019-01-21T02:09:43.272Z,45.85
2019-01-21T02:12:09.716Z,39.50
2019-01-21T02:14:36.122Z,41.77
2019-01-21T02:17:02.489Z,45.85
2019-01-21T02:19:28.751Z,34.70
2019-01-21T02:21:57.052Z,41.98
2019-01-21T02:24:27.093Z,39.58
2019-01-21T02:26:57.215Z,63.87
2019-01-21T02:29:27.313Z,66.33
2019-01-21T02:32:09.875Z,38.48
2019-01-21T02:34:54.985Z,36.75
2019-01-21T02:37:30.867Z,39.20
2019-01-21T02:40:07.318Z,42.75
2019-01-21T02:43:11.127Z,35.48
2019-01-21T02:45:49.659Z,31.05
2019-01-21T02:48:41.385Z,38.05
2019-01-21T02:51:26.653Z,34.27
2019-01-21T02:54:02.088Z,34.13
2019-01-21T02:56:47.023Z,37.73
2019-01-21T02:59:17.161Z,35.05
2019-01-21T03:02:08.720Z,34.65
2019-01-21T03:04:55.350Z,35.88
2019-01-21T03:07:28.248Z,46.25
2019-01-21T03:10:01.070Z,35.98
2019-01-21T03:12:51.013Z,40.55
2019-01-21T03:15:39.256Z,30.48
2019-01-21T03:18:29.166Z,43.60
2019-01-21T03:21:23.030Z,33.92
2019-01-21T03:24:23.587Z,36.05
2019-01-21T03:27:25.415Z,40.58
2019-01-21T03:30:12.213Z,33.90
2019-01-21T03:33:03.419Z,34.13
2019-01-21T03:35:45.721Z,30.08
2019-01-21T03:38:24.722Z,33.00
2019-01-21T03:41:00.814Z,34.20
2019-01-21T03:43:37.013Z,31.97
2019-01-21T03:46:31.776Z,34.48
2019-01-21T03:49:01.864Z,35.10
2019-01-21T03:51:34.996Z,36.15
2019-01-21T03:54:05.228Z,32.60
2019-01-21T03:56:35.372Z,28.62
2019-01-21T03:59:11.415Z,36.65
2019-01-21T04:02:10.454Z,40.45
2019-01-21T04:05:06.655Z,32.70
2019-01-21T04:07:53.428Z,34.67
2019-01-21T04:10:47.574Z,28.38
2019-01-21T04:13:29.719Z,34.53
2019-01-21T04:16:11.637Z,30.95
2019-01-21T04:19:08.789Z,38.10
2019-01-21T04:21:58.768Z,36.75
2019-01-21T04:24:37.658Z,40.55
2019-01-21T04:27:13.451Z,35.75
2019-01-21T04:30:07.328Z,37.75
2019-01-21T04:32:49.658Z,29.55
2019-01-21T04:35:41.488Z,34.58
2019-01-21T04:38:37.570Z,33.10
2019-01-21T04:41:07.687Z,38.58
2019-01-21T04:43:49.813Z,32.17
2019-01-21T04:46:22.914Z,36.30
2019-01-21T04:48:58.915Z,31.10
2019-01-21T04:51:40.756Z,31.70
2019-01-21T04:54:19.385Z,36.50
2019-01-21T04:57:13.852Z,39.67
2019-01-21T05:00:09.897Z,39.00
2019-01-21T05:03:06.242Z,36.30
2019-01-21T05:05:55.703Z,38.05
2019-01-21T05:08:42.734Z,39.38
2019-01-21T05:11:21.692Z,42.38
2019-01-21T05:14:06.664Z,37.73
2019-01-21T05:16:42.046Z,39.67
2019-01-21T05:19:23.532Z,36.45
2019-01-21T05:22:10.459Z,33.55
2019-01-21T05:25:04.439Z,32.63
2019-01-21T05:27:43.877Z,29.63
2019-01-21T05:30:36.410Z,31.20
2019-01-21T05:33:18.643Z,28.90
2019-01-21T05:35:54.512Z,32.98
2019-01-21T05:38:30.641Z,32.75
2019-01-21T05:41:03.515Z,35.20
2019-01-21T05:43:53.276Z,36.13
2019-01-21T05:46:49.162Z,35.83
2019-01-21T05:49:33.812Z,35.20
2019-01-21T05:52:06.866Z,26.95
2019-01-21T05:55:21.047Z,29.45
2019-01-21T05:58:10.837Z,33.18
2019-01-21T06:00:41.051Z,28.42
2019-01-21T06:03:24.483Z,23.77
2019-01-21T06:06:09.693Z,28.45
2019-01-21T06:08:54.250Z,24.90
2019-01-21T06:11:45.276Z,30.68
2019-01-21T06:14:21.289Z,26.30
2019-01-21T06:16:57.239Z,31.62
2019-01-21T06:19:45.598Z,30.52
2019-01-21T06:22:27.701Z,27.25
2019-01-21T06:25:12.824Z,27.60
2019-01-21T06:28:00.802Z,27.87
2019-01-21T06:30:30.874Z,39.92
2019-01-21T06:33:10.236Z,31.62
2019-01-21T06:35:52.379Z,31.70
2019-01-21T06:38:25.656Z,29.72
2019-01-21T06:41:31.922Z,27.80
2019-01-21T06:44:21.736Z,29.02
2019-01-21T06:47:03.632Z,26.90
2019-01-21T06:50:06.089Z,30.50
2019-01-21T06:52:38.937Z,24.65
2019-01-21T06:55:25.772Z,33.78
2019-01-21T06:58:04.800Z,31.42
2019-01-21T07:01:00.719Z,28.30
2019-01-21T07:03:36.612Z,27.98
2019-01-21T07:06:32.597Z,25.48
2019-01-21T07:09:11.681Z,27.70
2019-01-21T07:11:44.973Z,26.80
2019-01-21T07:14:31.646Z,23.95
2019-01-21T07:17:22.892Z,32.08
2019-01-21T07:20:02.119Z,34.27
2019-01-21T07:23:07.395Z,32.90
2019-01-21T07:26:10.647Z,30.15
2019-01-21T07:28:40.724Z,26.35
2019-01-21T07:31:16.577Z,29.52
2019-01-21T07:33:58.656Z,27.80
2019-01-21T07:36:55.583Z,29.32
2019-01-21T07:39:43.860Z,30.15
2019-01-21T07:42:32.101Z,51.08
2019-01-21T07:45:14.263Z,50.20
2019-01-21T07:47:47.143Z,31.90
2019-01-21T07:50:17.275Z,29.45
2019-01-21T07:52:47.346Z,34.20
2019-01-21T07:55:29.496Z,27.73
2019-01-21T07:58:28.761Z,27.50
2019-01-21T08:01:17.048Z,32.53
2019-01-21T08:03:59.111Z,36.85
2019-01-21T08:06:38.446Z,32.73
2019-01-21T08:09:17.232Z,36.03
2019-01-21T08:11:56.168Z,30.82
2019-01-21T08:14:26.244Z,30.30
2019-01-21T08:17:07.904Z,31.82
2019-01-21T08:19:46.896Z,29.63
2019-01-21T08:22:23.031Z,27.93
2019-01-21T08:25:20.342Z,28.60
2019-01-21T08:27:56.176Z,29.92
2019-01-21T08:30:37.528Z,21.75
2019-01-21T08:33:16.124Z,32.53
2019-01-21T08:35:49.072Z,34.78
2019-01-21T08:38:28.458Z,73.12
2019-01-21T08:41:04.409Z,37.70
2019-01-21T08:43:37.457Z,35.58
2019-01-21T08:46:07.547Z,32.78
2019-01-21T08:49:06.899Z,51.68
2019-01-21T08:51:43.031Z,42.05
2019-01-21T08:54:36.955Z,39.98
2019-01-21T08:57:13.031Z,29.52
2019-01-21T08:59:52.259Z,34.65
2019-01-21T09:02:34.603Z,59.20
2019-01-21T09:05:07.780Z,43.60
2019-01-21T09:07:55.882Z,45.70
2019-01-21T09:10:59.627Z,34.83
2019-01-21T09:13:38.715Z,33.95
2019-01-21T09:16:11.747Z,38.50
2019-01-21T09:18:56.959Z,39.08
2019-01-21T09:21:33.016Z,44.35
2019-01-21T09:24:25.751Z,39.42
2019-01-21T09:27:08.192Z,38.67
2019-01-21T09:29:58.338Z,31.30
2019-01-21T09:32:43.388Z,38.13
2019-01-21T09:35:13.432Z,31.12
2019-01-21T09:37:52.307Z,38.42
2019-01-21T09:40:40.808Z,33.95
2019-01-21T09:43:37.954Z,37.15
2019-01-21T09:46:31.173Z,33.35
2019-01-21T09:48:57.295Z,41.23
2019-01-21T09:51:25.569Z,32.78
2019-01-21T09:53:52.146Z,42.60
2019-01-21T09:56:19.309Z,33.90
2019-01-21T09:58:46.477Z,33.55
2019-01-21T10:01:12.971Z,33.73
2019-01-21T10:03:39.534Z,35.92
2019-01-21T10:06:06.153Z,36.03
2019-01-21T10:08:57.161Z,36.40
2019-01-21T10:11:27.249Z,39.08
2019-01-21T10:14:26.243Z,36.53
2019-01-21T10:17:02.179Z,33.33
2019-01-21T10:19:32.236Z,41.35
2019-01-21T10:22:13.920Z,36.40
2019-01-21T10:24:46.740Z,40.60
2019-01-21T10:27:34.632Z,34.15
2019-01-21T10:30:16.260Z,38.75
2019-01-21T10:33:12.396Z,32.17
2019-01-21T10:39:16.799Z,40.83
2019-01-21T10:41:49.835Z,32.95
2019-01-21T10:44:43.685Z,35.48
2019-01-21T10:47:26.033Z,46.42
2019-01-21T10:49:58.911Z,41.18
2019-01-21T10:52:40.600Z,38.25
2019-01-21T10:55:34.326Z,42.45
2019-01-21T10:58:13.461Z,39.20
2019-01-21T11:01:12.428Z,40.63
2019-01-21T11:03:45.717Z,36.83
2019-01-21T11:06:24.353Z,36.08
2019-01-21T11:08:57.526Z,33.92
2019-01-21T11:11:36.450Z,38.67
2019-01-21T11:14:27.449Z,32.98
2019-01-21T11:17:12.512Z,33.38
2019-01-21T11:20:04.253Z,31.40
2019-01-21T11:22:38.696Z,38.38
2019-01-21T11:25:26.598Z,34.05
2019-01-21T11:28:12.031Z,36.33
2019-01-21T11:31:00.440Z,26.93
2019-01-21T11:33:39.817Z,37.83
2019-01-21T11:36:28.115Z,33.90
2019-01-21T11:39:10.286Z,58.85
2019-01-21T11:41:52.403Z,44.70
2019-01-21T11:44:25.520Z,33.90
2019-01-21T11:47:04.916Z,38.90
2019-01-21T11:49:44.103Z,31.42
2019-01-21T11:52:17.707Z,29.32
2019-01-21T11:55:02.826Z,36.15
2019-01-21T11:57:32.920Z,35.90
2019-01-21T12:00:14.510Z,33.33
2019-01-21T12:02:44.582Z,30.55
2019-01-21T12:05:20.515Z,30.92
2019-01-21T12:07:53.376Z,31.12
2019-01-21T12:10:32.067Z,34.60
2019-01-21T12:13:11.045Z,37.58
2019-01-21T12:15:56.549Z,30.88
2019-01-21T12:18:29.690Z,31.02
2019-01-21T12:21:21.424Z,30.15
2019-01-21T12:23:57.549Z,29.57
2019-01-21T12:26:47.548Z,29.77
2019-01-21T12:29:51.620Z,31.80
2019-01-21T12:32:30.612Z,47.90
2019-01-21T12:35:21.473Z,35.15
2019-01-21T12:38:26.134Z,31.10
2019-01-21T12:41:10.887Z,30.45
2019-01-21T12:43:40.957Z,28.83
2019-01-21T12:46:25.856Z,31.20
2019-01-21T12:49:01.923Z,26.82
2019-01-21T12:51:34.933Z,27.87
2019-01-21T12:54:24.673Z,28.30
2019-01-21T12:57:06.580Z,26.35
2019-01-21T12:59:39.640Z,24.12
2019-01-21T13:02:30.742Z,28.27
2019-01-21T13:05:24.826Z,28.87
2019-01-21T13:07:54.909Z,30.88
2019-01-21T13:10:36.892Z,27.82
2019-01-21T13:13:07.001Z,30.27
2019-01-21T13:15:43.102Z,31.73
2019-01-21T13:18:16.188Z,31.05
2019-01-21T13:20:58.065Z,28.70
2019-01-21T13:23:28.147Z,26.57
2019-01-21T13:26:19.878Z,26.60
2019-01-21T13:28:56.165Z,38.92
2019-01-21T13:31:29.488Z,33.35
2019-01-21T13:34:14.640Z,27.17
2019-01-21T13:37:03.906Z,29.72
2019-01-21T13:39:54.745Z,22.15
2019-01-21T13:42:27.677Z,25.95
2019-01-21T13:45:00.940Z,32.80
2019-01-21T13:47:56.965Z,27.32
2019-01-21T13:50:27.060Z,26.57
2019-01-21T13:53:29.583Z,27.52
2019-01-21T13:56:05.467Z,26.37
2019-01-21T13:58:55.287Z,25.45
2019-01-21T14:01:31.387Z,27.70
2019-01-21T14:04:33.585Z,22.45
2019-01-21T14:07:06.810Z,29.25
2019-01-21T14:09:42.858Z,25.45
2019-01-21T14:12:22.000Z,26.02
2019-01-21T14:14:58.029Z,29.25
2019-01-21T14:17:52.667Z,32.50
2019-01-21T14:20:25.679Z,30.08
2019-01-21T14:23:01.746Z,30.20
2019-01-21T14:25:38.063Z,41.28
2019-01-21T14:28:27.756Z,28.35
2019-01-21T14:31:14.513Z,26.77
2019-01-21T14:33:44.600Z,28.10
2019-01-21T14:36:26.508Z,28.17
2019-01-21T14:39:20.640Z,26.05
2019-01-21T14:41:59.968Z,24.50
2019-01-21T14:44:49.654Z,25.97
2019-01-21T14:47:37.757Z,27.20
2019-01-21T14:50:10.639Z,23.30
2019-01-21T14:52:46.809Z,24.52
2019-01-21T14:55:31.926Z,24.40
2019-01-21T14:58:05.203Z,27.30
2019-01-21T15:00:35.281Z,22.87
2019-01-21T15:03:11.210Z,25.32
2019-01-21T15:05:47.115Z,23.65
2019-01-21T15:08:17.266Z,25.95
2019-01-21T15:10:50.280Z,21.82
2019-01-21T15:13:26.247Z,24.15
2019-01-21T15:16:14.427Z,26.50
2019-01-21T15:18:47.268Z,27.13
2019-01-21T15:21:26.321Z,28.38
2019-01-21T15:24:05.546Z,26.97
2019-01-21T15:26:35.720Z,23.98
2019-01-21T15:29:08.318Z,28.55
2019-01-21T15:31:47.346Z,33.78
2019-01-21T15:34:32.853Z,26.33
2019-01-21T15:37:14.919Z,27.32
2019-01-21T15:39:44.998Z,25.57
2019-01-21T15:42:36.713Z,27.93
2019-01-21T15:45:21.841Z,27.93
2019-01-21T15:48:03.344Z,28.30
2019-01-21T15:50:33.743Z,27.75
2019-01-21T15:53:06.617Z,27.60
2019-01-21T15:55:54.945Z,30.52
2019-01-21T15:58:36.483Z,26.70
2019-01-21T16:01:26.277Z,29.40
2019-01-21T16:04:14.364Z,35.52
2019-01-21T16:06:50.631Z,42.70
2019-01-21T16:09:38.396Z,38.95
2019-01-21T16:12:17.446Z,35.55
2019-01-21T16:14:47.535Z,34.30
2019-01-21T16:17:17.606Z,32.05
2019-01-21T16:19:44.001Z,34.00
2019-01-21T16:22:33.784Z,29.27
2019-01-21T16:25:06.807Z,35.70
2019-01-21T16:28:12.736Z,54.75
2019-01-21T16:30:57.870Z,42.95
2019-01-21T16:33:33.729Z,41.05
2019-01-21T16:36:12.606Z,33.78
2019-01-21T16:38:40.907Z,32.25
2019-01-21T16:41:37.591Z,33.05
2019-01-21T16:44:04.052Z,26.70
2019-01-21T16:46:30.437Z,39.27
2019-01-21T16:48:56.927Z,39.25
2019-01-21T16:51:23.329Z,36.93
2019-01-21T16:53:49.788Z,35.30
2019-01-21T16:56:16.199Z,34.67
2019-01-21T16:58:42.545Z,37.08
2019-01-21T17:01:08.896Z,34.10
2019-01-21T17:03:35.193Z,31.37
2019-01-21T17:06:01.569Z,33.70
2019-01-21T17:08:27.976Z,42.58
2019-01-21T17:10:54.243Z,42.17
2019-01-21T17:13:20.592Z,35.52
2019-01-21T17:15:46.883Z,27.50
2019-01-21T17:18:13.334Z,34.85
2019-01-21T17:20:39.828Z,31.80
2019-01-21T17:23:06.108Z,37.17
2019-01-21T17:25:32.572Z,112.90
2019-01-21T17:27:58.977Z,67.45
2019-01-21T17:30:25.360Z,43.65
2019-01-21T17:32:51.723Z,35.25
2019-01-21T17:35:18.151Z,34.65
2019-01-21T17:37:44.656Z,33.30
2019-01-21T17:40:14.652Z,35.50
2019-01-21T17:42:41.032Z,31.57
2019-01-21T17:45:10.860Z,33.30
2019-01-21T17:47:37.246Z,37.17
2019-01-21T17:50:07.379Z,35.23
2019-01-21T17:52:33.656Z,37.45
2019-01-21T17:55:00.001Z,36.88
2019-01-21T17:57:26.412Z,35.55
2019-01-21T17:59:52.683Z,39.45
2019-01-21T18:02:19.051Z,35.50
2019-01-21T18:04:45.354Z,33.55
2019-01-21T18:07:11.619Z,31.90
2019-01-21T18:09:38.038Z,34.30
2019-01-21T18:12:04.433Z,34.92
2019-01-21T18:14:30.708Z,36.68
2019-01-21T18:16:57.090Z,33.75
2019-01-21T18:19:23.479Z,37.42
2019-01-21T18:21:49.894Z,30.45
2019-01-21T18:24:16.172Z,31.77
2019-01-21T18:26:42.563Z,32.55
2019-01-21T18:29:08.956Z,31.97
2019-01-21T18:31:35.333Z,36.65
2019-01-21T18:34:01.739Z,31.77
2019-01-21T18:36:28.109Z,36.30
2019-01-21T18:38:54.486Z,32.90
2019-01-21T18:41:20.981Z,38.08
2019-01-21T18:43:47.356Z,33.48
2019-01-21T18:46:13.717Z,35.90
2019-01-21T18:48:40.119Z,34.00
2019-01-21T18:51:06.431Z,35.28
2019-01-21T18:53:32.685Z,37.65
2019-01-21T18:55:59.107Z,34.15
2019-01-21T18:58:25.389Z,36.48
2019-01-21T19:00:51.659Z,32.33
2019-01-21T19:03:17.916Z,37.98
2019-01-21T19:05:44.277Z,34.10
2019-01-21T19:08:10.689Z,35.03
2019-01-21T19:10:37.206Z,39.35
2019-01-21T19:13:03.543Z,37.78
2019-01-21T19:15:30.343Z,42.23
2019-01-21T19:17:56.811Z,35.83
2019-01-21T19:20:23.349Z,36.00
2019-01-21T19:22:49.813Z,37.00
2019-01-21T19:25:16.272Z,36.85
2019-01-21T19:27:42.668Z,31.80
2019-01-21T19:30:12.234Z,40.58
2019-01-21T19:32:38.728Z,41.02
2019-01-21T19:35:08.803Z,37.08
2019-01-21T19:37:35.107Z,41.02
2019-01-21T19:40:01.680Z,35.08
2019-01-21T19:42:28.091Z,50.00
2019-01-21T19:44:54.387Z,44.77
2019-01-21T19:47:20.781Z,38.98
2019-01-21T19:49:47.032Z,38.02
2019-01-21T19:52:13.469Z,39.88
2019-01-21T19:54:39.917Z,80.05
2019-01-21T19:57:06.400Z,52.20
2019-01-21T19:59:32.796Z,64.97
2019-01-21T20:01:59.259Z,60.08
2019-01-21T20:04:25.525Z,51.30
2019-01-21T20:06:52.021Z,52.55
2019-01-21T20:09:18.409Z,48.50
2019-01-21T20:11:44.717Z,44.53
2019-01-21T20:14:11.173Z,42.67
2019-01-21T20:16:37.643Z,40.58
2019-01-21T20:19:04.152Z,42.40
2019-01-21T20:21:30.509Z,51.08
2019-01-21T20:23:56.908Z,47.23
2019-01-21T20:26:23.424Z,44.38
2019-01-21T20:28:50.192Z,38.58
2019-01-21T20:31:16.459Z,42.40
2019-01-21T20:33:42.862Z,36.75
2019-01-21T20:36:09.327Z,40.40
2019-01-21T20:38:35.764Z,34.95
2019-01-21T20:41:02.148Z,32.60
2019-01-21T20:43:28.452Z,36.95
2019-01-21T20:45:54.720Z,37.05
2019-01-21T20:48:21.016Z,36.30
2019-01-21T20:50:47.385Z,43.92
2019-01-21T20:53:13.918Z,38.15
2019-01-21T20:55:40.310Z,33.18
2019-01-21T20:58:06.822Z,42.85
2019-01-21T21:00:33.191Z,39.42
2019-01-21T21:02:59.723Z,42.30
2019-01-21T21:05:26.185Z,45.03
2019-01-21T21:07:52.673Z,50.28
2019-01-21T21:10:19.153Z,45.23
2019-01-21T21:12:45.631Z,52.85
2019-01-21T21:15:21.095Z,53.08
2019-01-21T21:17:47.492Z,42.83
2019-01-21T21:20:14.076Z,51.05
2019-01-21T21:22:40.470Z,50.40
2019-01-21T21:25:10.568Z,50.38
2019-01-21T21:27:36.948Z,45.75
2019-01-21T21:30:07.023Z,37.20
2019-01-21T21:32:33.494Z,36.08
2019-01-21T21:34:59.868Z,37.35
2019-01-21T21:37:26.265Z,36.85
2019-01-21T21:39:52.736Z,36.50
2019-01-21T21:42:19.040Z,36.17
2019-01-21T21:44:45.305Z,37.85
2019-01-21T21:47:11.604Z,40.80
2019-01-21T21:49:37.902Z,37.93
2019-01-21T21:52:04.290Z,37.10
2019-01-21T21:54:30.587Z,39.45
2019-01-21T21:56:57.158Z,40.88
2019-01-21T21:59:23.443Z,44.35
2019-01-21T22:01:50.240Z,43.98
2019-01-21T22:04:16.615Z,38.65
2019-01-21T22:06:43.063Z,42.70
2019-01-21T22:09:09.321Z,37.63
2019-01-21T22:11:35.824Z,35.92
2019-01-21T22:14:02.969Z,41.30
2019-01-21T22:16:29.387Z,46.45
2019-01-21T22:18:55.714Z,36.38
2019-01-21T22:21:21.960Z,42.27
2019-01-21T22:23:48.347Z,36.93
2019-01-21T22:26:14.700Z,39.55
2019-01-21T22:28:41.396Z,43.17
2019-01-21T22:31:07.796Z,44.25
2019-01-21T22:33:34.157Z,38.88
2019-01-21T22:36:00.693Z,37.45
2019-01-21T22:38:26.960Z,40.38
2019-01-21T22:40:53.329Z,38.63
2019-01-21T22:43:19.833Z,45.23
2019-01-21T22:45:46.201Z,42.15
2019-01-21T22:48:12.684Z,42.40
2019-01-21T22:50:39.090Z,36.98
2019-01-21T22:53:05.494Z,37.23
2019-01-21T22:55:32.179Z,39.30
2019-01-21T22:57:58.471Z,35.48
2019-01-21T23:00:36.783Z,38.02
2019-01-21T23:03:03.354Z,35.78
2019-01-21T23:05:29.731Z,37.73
2019-01-21T23:07:56.144Z,35.45
2019-01-21T23:10:22.519Z,32.65
2019-01-21T23:12:49.290Z,29.80
2019-01-21T23:15:15.717Z,36.53
2019-01-21T23:17:41.969Z,38.08
2019-01-21T23:20:09.587Z,35.78
2019-01-21T23:22:35.932Z,36.42
2019-01-21T23:25:03.716Z,32.10
2019-01-21T23:27:30.125Z,33.95
2019-01-21T23:29:56.766Z,33.65
2019-01-21T23:32:23.243Z,37.80
2019-01-21T23:34:49.662Z,35.63
2019-01-21T23:37:15.997Z,35.52
2019-01-21T23:39:42.300Z,38.20
2019-01-21T23:42:08.682Z,44.50
2019-01-21T23:44:34.987Z,32.53
2019-01-21T23:47:01.396Z,36.70
2019-01-21T23:49:27.761Z,38.00
2019-01-21T23:51:54.144Z,30.60
2019-01-21T23:54:20.704Z,35.45
2019-01-21T23:56:47.088Z,33.33
2019-01-21T23:59:13.642Z,29.72
